Portada
METAR-TAF:

METAR-TAF

Aeropuertos :

Aeropuerto Internacional de Recife

Recife, Pernambuco, Brasil

latitud: 08-08S, longitud: 034-55W, altitud: 19 m

Observación

El informe se hizo hace 1 hora y 7 minutos, a las 19:00 UTC
Viento 11 kt del sureste
Temperatura 28°C
Humedad 66%
Presión 1014 hPa
Visibilidad 10 km o más
Escasas nubes a una altura de 2700 ft

METAR: SBRF 151900Z 14011KT 9999 FEW027 28/21 Q1014

Hora: 17:07 (20:07 UTC)

Pronóstico

El informe se hizo hace 5 horas y 7 minutos, a las 15:00 UTC
Pronóstico válido del 15 a las 18 UTC al 16 a las 18 UTC
Viento 12 kt del sureste
Visibilidad 10 km o más
Nubes dispersas a una altura de 2300 ft

TAF: SBRF 151500Z 1518/1618 14012KT 9999 SCT023 TN26/1605Z TX29/1615Z RMK PEU

Observaciones y pronósticos meteorológicos de más de 4000 aeropuertos (mensajes METAR y TAF).

Los puntos amarillos y rojos representan las estaciones disponibles.

Ponga el ratón en el punto deseado para ver el nombre de la estación.

Haga clic para ver las observaciones y los pronósticos meteorológicos.

Para cambiar el mapa : haga clic en los botones verdes con una cruz de color negro para hacer un zoom, en el botón verde con un guión para alejar o en las flechas verdes para mapas adyacentes.


METAR-TAF: